sensor_id;sensor_type;location;lat;lon;timestamp;P1;durP1;ratioP1;P2;durP2;ratioP2
83649;SDS011;73612;50.948;6.956;2023-11-21T00:01:49;13.53;;;8.80;;
83649;SDS011;73612;50.948;6.956;2023-11-21T00:04:19;12.33;;;8.90;;
83649;SDS011;73612;50.948;6.956;2023-11-21T00:06:47;21.23;;;11.37;;
83649;SDS011;73612;50.948;6.956;2023-11-21T00:09:14;15.47;;;9.57;;
83649;SDS011;73612;50.948;6.956;2023-11-21T00:11:42;14.43;;;9.13;;
83649;SDS011;73612;50.948;6.956;2023-11-21T00:14:17;20.17;;;13.00;;
83649;SDS011;73612;50.948;6.956;2023-11-21T00:16:44;18.20;;;12.37;;
83649;SDS011;73612;50.948;6.956;2023-11-21T00:19:11;16.60;;;11.83;;
83649;SDS011;73612;50.948;6.956;2023-11-21T00:21:39;17.73;;;13.50;;
83649;SDS011;73612;50.948;6.956;2023-11-21T00:24:11;20.13;;;13.30;;
83649;SDS011;73612;50.948;6.956;2023-11-21T00:26:38;23.93;;;14.40;;
83649;SDS011;73612;50.948;6.956;2023-11-21T00:29:11;24.47;;;16.10;;
83649;SDS011;73612;50.948;6.956;2023-11-21T00:31:52;24.87;;;16.30;;
83649;SDS011;73612;50.948;6.956;2023-11-21T00:34:22;22.23;;;15.53;;
83649;SDS011;73612;50.948;6.956;2023-11-21T00:36:50;25.17;;;16.20;;
83649;SDS011;73612;50.948;6.956;2023-11-21T00:39:17;26.63;;;17.23;;
83649;SDS011;73612;50.948;6.956;2023-11-21T00:41:45;28.30;;;16.93;;
83649;SDS011;73612;50.948;6.956;2023-11-21T00:44:11;20.83;;;13.90;;
83649;SDS011;73612;50.948;6.956;2023-11-21T00:46:41;25.87;;;16.73;;
83649;SDS011;73612;50.948;6.956;2023-11-21T00:49:11;21.77;;;15.63;;
83649;SDS011;73612;50.948;6.956;2023-11-21T00:51:39;21.87;;;16.50;;
83649;SDS011;73612;50.948;6.956;2023-11-21T00:54:12;21.07;;;15.20;;
83649;SDS011;73612;50.948;6.956;2023-11-21T00:56:40;22.67;;;14.23;;
83649;SDS011;73612;50.948;6.956;2023-11-21T00:59:10;20.97;;;14.73;;
83649;SDS011;73612;50.948;6.956;2023-11-21T01:01:39;23.83;;;15.70;;
83649;SDS011;73612;50.948;6.956;2023-11-21T01:04:12;25.87;;;16.37;;
83649;SDS011;73612;50.948;6.956;2023-11-21T01:06:42;27.43;;;17.10;;
83649;SDS011;73612;50.948;6.956;2023-11-21T01:09:12;34.57;;;23.17;;
83649;SDS011;73612;50.948;6.956;2023-11-21T01:11:39;31.57;;;19.37;;
83649;SDS011;73612;50.948;6.956;2023-11-21T01:14:16;42.53;;;24.00;;
83649;SDS011;73612;50.948;6.956;2023-11-21T01:16:50;37.93;;;23.47;;
83649;SDS011;73612;50.948;6.956;2023-11-21T01:19:40;28.20;;;16.97;;
83649;SDS011;73612;50.948;6.956;2023-11-21T01:22:09;37.77;;;22.03;;
83649;SDS011;73612;50.948;6.956;2023-11-21T01:24:48;29.33;;;18.00;;
83649;SDS011;73612;50.948;6.956;2023-11-21T01:27:24;23.40;;;17.23;;
83649;SDS011;73612;50.948;6.956;2023-11-21T01:29:56;25.27;;;15.30;;
83649;SDS011;73612;50.948;6.956;2023-11-21T01:32:28;26.57;;;16.90;;
83649;SDS011;73612;50.948;6.956;2023-11-21T01:34:54;27.83;;;15.83;;
83649;SDS011;73612;50.948;6.956;2023-11-21T01:37:21;25.83;;;17.20;;
83649;SDS011;73612;50.948;6.956;2023-11-21T01:39:48;23.07;;;15.07;;
83649;SDS011;73612;50.948;6.956;2023-11-21T01:42:14;25.10;;;15.43;;
83649;SDS011;73612;50.948;6.956;2023-11-21T01:44:41;23.77;;;15.07;;
83649;SDS011;73612;50.948;6.956;2023-11-21T01:47:08;28.43;;;16.17;;
83649;SDS011;73612;50.948;6.956;2023-11-21T01:49:34;28.60;;;16.87;;
83649;SDS011;73612;50.948;6.956;2023-11-21T01:52:00;26.77;;;16.23;;
83649;SDS011;73612;50.948;6.956;2023-11-21T01:54:27;25.57;;;16.40;;
83649;SDS011;73612;50.948;6.956;2023-11-21T01:56:53;25.43;;;15.83;;
83649;SDS011;73612;50.948;6.956;2023-11-21T01:59:21;25.87;;;15.87;;
83649;SDS011;73612;50.948;6.956;2023-11-21T02:01:48;33.50;;;20.23;;
83649;SDS011;73612;50.948;6.956;2023-11-21T02:04:14;29.60;;;18.37;;
83649;SDS011;73612;50.948;6.956;2023-11-21T02:06:41;25.63;;;18.17;;
83649;SDS011;73612;50.948;6.956;2023-11-21T02:09:07;28.53;;;18.50;;
83649;SDS011;73612;50.948;6.956;2023-11-21T02:11:34;33.27;;;22.47;;
83649;SDS011;73612;50.948;6.956;2023-11-21T02:14:01;47.03;;;28.13;;
83649;SDS011;73612;50.948;6.956;2023-11-21T02:16:27;31.70;;;21.03;;
83649;SDS011;73612;50.948;6.956;2023-11-21T02:18:54;36.13;;;22.07;;
83649;SDS011;73612;50.948;6.956;2023-11-21T02:21:20;32.13;;;21.10;;
83649;SDS011;73612;50.948;6.956;2023-11-21T02:23:47;36.33;;;24.37;;
83649;SDS011;73612;50.948;6.956;2023-11-21T02:26:14;44.53;;;26.13;;
83649;SDS011;73612;50.948;6.956;2023-11-21T02:28:40;55.73;;;30.80;;
83649;SDS011;73612;50.948;6.956;2023-11-21T02:31:07;42.60;;;26.00;;
83649;SDS011;73612;50.948;6.956;2023-11-21T02:33:33;46.40;;;27.20;;
83649;SDS011;73612;50.948;6.956;2023-11-21T02:36:00;42.07;;;24.30;;
83649;SDS011;73612;50.948;6.956;2023-11-21T02:38:26;43.43;;;24.37;;
83649;SDS011;73612;50.948;6.956;2023-11-21T02:40:53;48.10;;;27.10;;
83649;SDS011;73612;50.948;6.956;2023-11-21T02:43:20;43.37;;;26.70;;
83649;SDS011;73612;50.948;6.956;2023-11-21T02:45:46;42.47;;;26.20;;
83649;SDS011;73612;50.948;6.956;2023-11-21T02:48:13;42.07;;;23.57;;
83649;SDS011;73612;50.948;6.956;2023-11-21T02:50:39;38.03;;;24.70;;
83649;SDS011;73612;50.948;6.956;2023-11-21T02:53:06;35.37;;;22.97;;
83649;SDS011;73612;50.948;6.956;2023-11-21T02:55:33;35.87;;;22.30;;
83649;SDS011;73612;50.948;6.956;2023-11-21T02:58:00;39.37;;;23.47;;
83649;SDS011;73612;50.948;6.956;2023-11-21T03:00:26;36.50;;;23.57;;
83649;SDS011;73612;50.948;6.956;2023-11-21T03:02:54;38.63;;;23.87;;
83649;SDS011;73612;50.948;6.956;2023-11-21T03:05:20;34.43;;;20.43;;
83649;SDS011;73612;50.948;6.956;2023-11-21T03:07:46;38.07;;;21.70;;
83649;SDS011;73612;50.948;6.956;2023-11-21T03:10:13;33.03;;;21.33;;
83649;SDS011;73612;50.948;6.956;2023-11-21T03:12:40;28.83;;;18.57;;
83649;SDS011;73612;50.948;6.956;2023-11-21T03:15:06;32.73;;;19.57;;
83649;SDS011;73612;50.948;6.956;2023-11-21T03:17:33;36.50;;;20.03;;
83649;SDS011;73612;50.948;6.956;2023-11-21T03:20:00;36.07;;;19.57;;
83649;SDS011;73612;50.948;6.956;2023-11-21T03:22:26;30.33;;;18.70;;
83649;SDS011;73612;50.948;6.956;2023-11-21T03:24:53;29.40;;;18.47;;
83649;SDS011;73612;50.948;6.956;2023-11-21T03:27:20;28.77;;;18.53;;
83649;SDS011;73612;50.948;6.956;2023-11-21T03:29:47;28.63;;;17.60;;
83649;SDS011;73612;50.948;6.956;2023-11-21T03:32:13;30.20;;;18.07;;
83649;SDS011;73612;50.948;6.956;2023-11-21T03:37:18;36.20;;;21.03;;
83649;SDS011;73612;50.948;6.956;2023-11-21T03:39:44;32.33;;;19.90;;
83649;SDS011;73612;50.948;6.956;2023-11-21T03:42:11;33.17;;;21.53;;
83649;SDS011;73612;50.948;6.956;2023-11-21T03:44:37;35.30;;;20.10;;
83649;SDS011;73612;50.948;6.956;2023-11-21T03:47:04;31.83;;;19.90;;
83649;SDS011;73612;50.948;6.956;2023-11-21T03:49:31;28.60;;;19.53;;
83649;SDS011;73612;50.948;6.956;2023-11-21T03:51:58;40.30;;;23.67;;
83649;SDS011;73612;50.948;6.956;2023-11-21T03:54:24;42.87;;;23.23;;
83649;SDS011;73612;50.948;6.956;2023-11-21T03:56:50;35.40;;;22.17;;
83649;SDS011;73612;50.948;6.956;2023-11-21T03:59:17;41.90;;;24.60;;
83649;SDS011;73612;50.948;6.956;2023-11-21T04:01:43;45.33;;;25.33;;
83649;SDS011;73612;50.948;6.956;2023-11-21T04:04:10;41.73;;;24.77;;
83649;SDS011;73612;50.948;6.956;2023-11-21T04:06:37;38.97;;;24.57;;
83649;SDS011;73612;50.948;6.956;2023-11-21T04:09:03;38.87;;;22.67;;
83649;SDS011;73612;50.948;6.956;2023-11-21T04:11:31;42.23;;;24.20;;
83649;SDS011;73612;50.948;6.956;2023-11-21T04:13:57;40.10;;;23.93;;
83649;SDS011;73612;50.948;6.956;2023-11-21T04:16:24;40.60;;;24.23;;
83649;SDS011;73612;50.948;6.956;2023-11-21T04:18:51;44.20;;;25.40;;
83649;SDS011;73612;50.948;6.956;2023-11-21T04:21:17;37.80;;;22.63;;
83649;SDS011;73612;50.948;6.956;2023-11-21T04:23:44;38.30;;;22.90;;
83649;SDS011;73612;50.948;6.956;2023-11-21T04:26:10;44.23;;;25.23;;
83649;SDS011;73612;50.948;6.956;2023-11-21T04:28:37;49.03;;;28.63;;
83649;SDS011;73612;50.948;6.956;2023-11-21T04:31:03;39.33;;;24.67;;
83649;SDS011;73612;50.948;6.956;2023-11-21T04:33:30;40.03;;;22.77;;
83649;SDS011;73612;50.948;6.956;2023-11-21T04:35:57;40.87;;;23.10;;
83649;SDS011;73612;50.948;6.956;2023-11-21T04:38:23;43.90;;;24.87;;
83649;SDS011;73612;50.948;6.956;2023-11-21T04:40:50;42.53;;;25.50;;
83649;SDS011;73612;50.948;6.956;2023-11-21T04:43:16;37.93;;;24.10;;
83649;SDS011;73612;50.948;6.956;2023-11-21T04:45:43;41.87;;;24.17;;
83649;SDS011;73612;50.948;6.956;2023-11-21T04:48:10;41.57;;;24.50;;
83649;SDS011;73612;50.948;6.956;2023-11-21T04:50:36;43.73;;;24.00;;
83649;SDS011;73612;50.948;6.956;2023-11-21T04:53:03;47.13;;;27.87;;
83649;SDS011;73612;50.948;6.956;2023-11-21T04:55:29;49.30;;;27.13;;
83649;SDS011;73612;50.948;6.956;2023-11-21T04:57:56;40.00;;;24.40;;
83649;SDS011;73612;50.948;6.956;2023-11-21T05:00:23;41.50;;;24.23;;
83649;SDS011;73612;50.948;6.956;2023-11-21T05:02:49;45.27;;;25.40;;
83649;SDS011;73612;50.948;6.956;2023-11-21T05:05:16;49.60;;;26.83;;
83649;SDS011;73612;50.948;6.956;2023-11-21T05:07:42;47.53;;;27.10;;
83649;SDS011;73612;50.948;6.956;2023-11-21T05:10:09;42.37;;;24.10;;
83649;SDS011;73612;50.948;6.956;2023-11-21T05:12:36;57.80;;;27.83;;
83649;SDS011;73612;50.948;6.956;2023-11-21T05:15:04;47.40;;;26.10;;
83649;SDS011;73612;50.948;6.956;2023-11-21T05:17:34;47.37;;;26.13;;
83649;SDS011;73612;50.948;6.956;2023-11-21T05:20:00;47.73;;;26.37;;
83649;SDS011;73612;50.948;6.956;2023-11-21T05:22:28;58.10;;;29.53;;
83649;SDS011;73612;50.948;6.956;2023-11-21T05:24:54;58.70;;;28.90;;
83649;SDS011;73612;50.948;6.956;2023-11-21T05:27:21;44.87;;;24.00;;
83649;SDS011;73612;50.948;6.956;2023-11-21T05:29:47;64.00;;;28.93;;
83649;SDS011;73612;50.948;6.956;2023-11-21T05:32:14;50.57;;;27.90;;
83649;SDS011;73612;50.948;6.956;2023-11-21T05:34:41;67.73;;;31.33;;
83649;SDS011;73612;50.948;6.956;2023-11-21T05:37:07;56.13;;;28.43;;
83649;SDS011;73612;50.948;6.956;2023-11-21T05:39:34;47.27;;;26.63;;
83649;SDS011;73612;50.948;6.956;2023-11-21T05:42:00;39.93;;;22.50;;
83649;SDS011;73612;50.948;6.956;2023-11-21T05:44:27;41.17;;;22.90;;
83649;SDS011;73612;50.948;6.956;2023-11-21T05:46:54;47.13;;;23.73;;
83649;SDS011;73612;50.948;6.956;2023-11-21T05:49:20;38.57;;;22.13;;
83649;SDS011;73612;50.948;6.956;2023-11-21T05:51:47;38.27;;;21.53;;
83649;SDS011;73612;50.948;6.956;2023-11-21T05:54:13;40.27;;;23.23;;
83649;SDS011;73612;50.948;6.956;2023-11-21T05:56:40;40.30;;;22.53;;
83649;SDS011;73612;50.948;6.956;2023-11-21T05:59:07;42.23;;;23.47;;
83649;SDS011;73612;50.948;6.956;2023-11-21T06:01:33;39.13;;;21.97;;
83649;SDS011;73612;50.948;6.956;2023-11-21T06:04:00;39.40;;;20.87;;
83649;SDS011;73612;50.948;6.956;2023-11-21T06:06:26;40.70;;;21.73;;
83649;SDS011;73612;50.948;6.956;2023-11-21T06:08:53;44.40;;;24.10;;
83649;SDS011;73612;50.948;6.956;2023-11-21T06:11:19;52.73;;;27.50;;
83649;SDS011;73612;50.948;6.956;2023-11-21T06:13:46;49.33;;;25.23;;
83649;SDS011;73612;50.948;6.956;2023-11-21T06:16:13;44.83;;;25.20;;
83649;SDS011;73612;50.948;6.956;2023-11-21T06:18:39;36.20;;;21.43;;
83649;SDS011;73612;50.948;6.956;2023-11-21T06:21:08;42.63;;;21.90;;
83649;SDS011;73612;50.948;6.956;2023-11-21T06:23:32;39.03;;;21.13;;
83649;SDS011;73612;50.948;6.956;2023-11-21T06:25:59;41.90;;;23.20;;
83649;SDS011;73612;50.948;6.956;2023-11-21T06:28:26;33.47;;;20.43;;
83649;SDS011;73612;50.948;6.956;2023-11-21T06:30:52;35.80;;;20.50;;
83649;SDS011;73612;50.948;6.956;2023-11-21T06:33:19;45.20;;;22.40;;
83649;SDS011;73612;50.948;6.956;2023-11-21T06:35:45;40.07;;;20.97;;
83649;SDS011;73612;50.948;6.956;2023-11-21T06:38:12;37.43;;;21.67;;
83649;SDS011;73612;50.948;6.956;2023-11-21T06:40:39;36.53;;;20.43;;
83649;SDS011;73612;50.948;6.956;2023-11-21T06:43:05;43.73;;;23.97;;
83649;SDS011;73612;50.948;6.956;2023-11-21T06:45:32;46.03;;;23.53;;
83649;SDS011;73612;50.948;6.956;2023-11-21T06:47:58;50.20;;;25.27;;
83649;SDS011;73612;50.948;6.956;2023-11-21T06:50:25;61.83;;;27.27;;
83649;SDS011;73612;50.948;6.956;2023-11-21T06:52:52;48.63;;;23.60;;
83649;SDS011;73612;50.948;6.956;2023-11-21T06:55:18;45.60;;;25.00;;
83649;SDS011;73612;50.948;6.956;2023-11-21T06:57:45;41.00;;;21.93;;
83649;SDS011;73612;50.948;6.956;2023-11-21T07:00:12;44.30;;;23.53;;
83649;SDS011;73612;50.948;6.956;2023-11-21T07:02:39;43.47;;;23.90;;
83649;SDS011;73612;50.948;6.956;2023-11-21T07:05:05;42.83;;;23.83;;
83649;SDS011;73612;50.948;6.956;2023-11-21T07:07:32;42.60;;;24.50;;
83649;SDS011;73612;50.948;6.956;2023-11-21T07:09:59;45.27;;;23.23;;
83649;SDS011;73612;50.948;6.956;2023-11-21T07:12:25;43.57;;;24.73;;
83649;SDS011;73612;50.948;6.956;2023-11-21T07:14:52;50.57;;;24.60;;
83649;SDS011;73612;50.948;6.956;2023-11-21T07:17:18;50.10;;;25.50;;
83649;SDS011;73612;50.948;6.956;2023-11-21T07:19:45;45.13;;;24.83;;
83649;SDS011;73612;50.948;6.956;2023-11-21T07:22:12;52.13;;;26.07;;
83649;SDS011;73612;50.948;6.956;2023-11-21T07:24:38;51.83;;;27.23;;
83649;SDS011;73612;50.948;6.956;2023-11-21T07:27:05;62.47;;;28.93;;
83649;SDS011;73612;50.948;6.956;2023-11-21T07:29:31;52.23;;;27.83;;
83649;SDS011;73612;50.948;6.956;2023-11-21T07:31:58;44.47;;;25.80;;
83649;SDS011;73612;50.948;6.956;2023-11-21T07:37:10;44.23;;;24.07;;
83649;SDS011;73612;50.948;6.956;2023-11-21T07:39:47;49.13;;;25.77;;
83649;SDS011;73612;50.948;6.956;2023-11-21T07:44:57;53.83;;;26.73;;
83649;SDS011;73612;50.948;6.956;2023-11-21T07:52:58;42.50;;;24.23;;
83649;SDS011;73612;50.948;6.956;2023-11-21T07:55:33;46.40;;;24.93;;
83649;SDS011;73612;50.948;6.956;2023-11-21T08:14:41;51.37;;;26.27;;
83649;SDS011;73612;50.948;6.956;2023-11-21T08:17:08;43.40;;;24.43;;
83649;SDS011;73612;50.948;6.956;2023-11-21T08:19:35;50.37;;;26.70;;
83649;SDS011;73612;50.948;6.956;2023-11-21T08:22:01;58.43;;;24.97;;
83649;SDS011;73612;50.948;6.956;2023-11-21T08:24:41;44.30;;;23.00;;
83649;SDS011;73612;50.948;6.956;2023-11-21T08:27:07;47.77;;;24.73;;
83649;SDS011;73612;50.948;6.956;2023-11-21T08:29:49;40.80;;;24.57;;
83649;SDS011;73612;50.948;6.956;2023-11-21T08:32:15;44.83;;;23.77;;
83649;SDS011;73612;50.948;6.956;2023-11-21T08:34:42;43.57;;;23.67;;
83649;SDS011;73612;50.948;6.956;2023-11-21T08:37:08;45.10;;;24.73;;
83649;SDS011;73612;50.948;6.956;2023-11-21T08:39:44;56.53;;;25.67;;
83649;SDS011;73612;50.948;6.956;2023-11-21T08:42:18;50.37;;;25.80;;
83649;SDS011;73612;50.948;6.956;2023-11-21T08:44:48;47.47;;;24.83;;
83649;SDS011;73612;50.948;6.956;2023-11-21T08:47:23;46.53;;;24.67;;
83649;SDS011;73612;50.948;6.956;2023-11-21T08:52:43;47.60;;;24.90;;
83649;SDS011;73612;50.948;6.956;2023-11-21T08:55:25;52.03;;;25.83;;
83649;SDS011;73612;50.948;6.956;2023-11-21T08:58:02;50.27;;;24.93;;
83649;SDS011;73612;50.948;6.956;2023-11-21T09:03:25;47.20;;;25.97;;
83649;SDS011;73612;50.948;6.956;2023-11-21T09:08:36;46.90;;;25.20;;
83649;SDS011;73612;50.948;6.956;2023-11-21T09:13:55;44.30;;;24.57;;
83649;SDS011;73612;50.948;6.956;2023-11-21T09:19:05;54.00;;;26.90;;
83649;SDS011;73612;50.948;6.956;2023-11-21T09:21:38;52.40;;;26.47;;
83649;SDS011;73612;50.948;6.956;2023-11-21T09:24:15;48.33;;;26.17;;
83649;SDS011;73612;50.948;6.956;2023-11-21T09:26:45;46.70;;;24.90;;
83649;SDS011;73612;50.948;6.956;2023-11-21T09:34:50;50.27;;;25.63;;
83649;SDS011;73612;50.948;6.956;2023-11-21T09:37:34;52.43;;;27.30;;
83649;SDS011;73612;50.948;6.956;2023-11-21T09:40:15;51.17;;;29.27;;
83649;SDS011;73612;50.948;6.956;2023-11-21T09:42:49;50.60;;;26.37;;
83649;SDS011;73612;50.948;6.956;2023-11-21T09:45:28;52.47;;;28.87;;
83649;SDS011;73612;50.948;6.956;2023-11-21T09:47:58;49.73;;;27.17;;
83649;SDS011;73612;50.948;6.956;2023-11-21T09:50:29;52.80;;;27.50;;
83649;SDS011;73612;50.948;6.956;2023-11-21T09:53:20;46.97;;;26.90;;
83649;SDS011;73612;50.948;6.956;2023-11-21T09:55:50;51.07;;;26.80;;
83649;SDS011;73612;50.948;6.956;2023-11-21T09:58:19;50.87;;;26.87;;
83649;SDS011;73612;50.948;6.956;2023-11-21T10:00:52;40.70;;;23.50;;
83649;SDS011;73612;50.948;6.956;2023-11-21T10:03:26;49.60;;;24.73;;
83649;SDS011;73612;50.948;6.956;2023-11-21T10:05:58;48.57;;;24.97;;
83649;SDS011;73612;50.948;6.956;2023-11-21T10:08:33;44.90;;;24.97;;
83649;SDS011;73612;50.948;6.956;2023-11-21T10:11:10;46.13;;;23.03;;
83649;SDS011;73612;50.948;6.956;2023-11-21T10:13:43;45.70;;;25.23;;
83649;SDS011;73612;50.948;6.956;2023-11-21T10:16:25;42.13;;;23.33;;
83649;SDS011;73612;50.948;6.956;2023-11-21T10:19:02;47.00;;;23.90;;
83649;SDS011;73612;50.948;6.956;2023-11-21T10:21:51;45.40;;;23.77;;
83649;SDS011;73612;50.948;6.956;2023-11-21T10:27:14;45.30;;;25.77;;
83649;SDS011;73612;50.948;6.956;2023-11-21T10:29:48;46.70;;;25.00;;
83649;SDS011;73612;50.948;6.956;2023-11-21T10:35:08;40.17;;;20.17;;
83649;SDS011;73612;50.948;6.956;2023-11-21T10:37:48;41.13;;;23.07;;
83649;SDS011;73612;50.948;6.956;2023-11-21T10:40:23;45.37;;;23.43;;
83649;SDS011;73612;50.948;6.956;2023-11-21T10:43:10;41.63;;;23.43;;
83649;SDS011;73612;50.948;6.956;2023-11-21T10:45:41;40.40;;;22.63;;
83649;SDS011;73612;50.948;6.956;2023-11-21T10:48:22;46.97;;;23.83;;
83649;SDS011;73612;50.948;6.956;2023-11-21T10:51:13;53.17;;;26.23;;
83649;SDS011;73612;50.948;6.956;2023-11-21T10:53:55;44.03;;;24.57;;
83649;SDS011;73612;50.948;6.956;2023-11-21T10:56:34;49.60;;;24.97;;
83649;SDS011;73612;50.948;6.956;2023-11-21T11:01:57;55.17;;;26.63;;
83649;SDS011;73612;50.948;6.956;2023-11-21T11:07:02;52.53;;;26.30;;
83649;SDS011;73612;50.948;6.956;2023-11-21T11:09:40;59.67;;;26.97;;
83649;SDS011;73612;50.948;6.956;2023-11-21T11:12:10;53.97;;;26.67;;
83649;SDS011;73612;50.948;6.956;2023-11-21T11:14:52;53.37;;;26.50;;
83649;SDS011;73612;50.948;6.956;2023-11-21T11:20:32;55.10;;;26.97;;
83649;SDS011;73612;50.948;6.956;2023-11-21T11:28:54;56.00;;;27.70;;
83649;SDS011;73612;50.948;6.956;2023-11-21T11:31:48;58.87;;;27.50;;
83649;SDS011;73612;50.948;6.956;2023-11-21T11:36:58;53.47;;;24.37;;
83649;SDS011;73612;50.948;6.956;2023-11-21T11:42:12;49.87;;;24.87;;
83649;SDS011;73612;50.948;6.956;2023-11-21T11:44:48;59.07;;;27.47;;
83649;SDS011;73612;50.948;6.956;2023-11-21T11:47:31;47.00;;;25.30;;
83649;SDS011;73612;50.948;6.956;2023-11-21T11:50:08;49.57;;;25.00;;
83649;SDS011;73612;50.948;6.956;2023-11-21T11:52:40;48.27;;;25.53;;
83649;SDS011;73612;50.948;6.956;2023-11-21T11:55:21;48.77;;;25.90;;
83649;SDS011;73612;50.948;6.956;2023-11-21T11:57:58;47.43;;;25.07;;
83649;SDS011;73612;50.948;6.956;2023-11-21T12:03:14;39.40;;;22.23;;
83649;SDS011;73612;50.948;6.956;2023-11-21T12:05:44;46.33;;;23.43;;
83649;SDS011;73612;50.948;6.956;2023-11-21T12:08:20;37.83;;;20.87;;
83649;SDS011;73612;50.948;6.956;2023-11-21T12:10:48;47.30;;;23.73;;
83649;SDS011;73612;50.948;6.956;2023-11-21T12:19:05;51.70;;;23.50;;
83649;SDS011;73612;50.948;6.956;2023-11-21T12:24:28;56.20;;;25.50;;
83649;SDS011;73612;50.948;6.956;2023-11-21T12:29:53;43.60;;;21.97;;
83649;SDS011;73612;50.948;6.956;2023-11-21T12:32:41;55.10;;;25.23;;
83649;SDS011;73612;50.948;6.956;2023-11-21T12:38:02;55.37;;;26.57;;
83649;SDS011;73612;50.948;6.956;2023-11-21T12:40:34;56.00;;;26.43;;
83649;SDS011;73612;50.948;6.956;2023-11-21T12:43:10;56.27;;;26.07;;
83649;SDS011;73612;50.948;6.956;2023-11-21T12:54:00;49.17;;;24.63;;
83649;SDS011;73612;50.948;6.956;2023-11-21T12:56:38;47.20;;;24.57;;
83649;SDS011;73612;50.948;6.956;2023-11-21T12:59:09;47.73;;;25.27;;
83649;SDS011;73612;50.948;6.956;2023-11-21T13:01:41;44.57;;;23.70;;
83649;SDS011;73612;50.948;6.956;2023-11-21T13:07:18;48.30;;;22.63;;
83649;SDS011;73612;50.948;6.956;2023-11-21T13:12:52;43.47;;;23.17;;
83649;SDS011;73612;50.948;6.956;2023-11-21T13:18:18;44.13;;;22.23;;
83649;SDS011;73612;50.948;6.956;2023-11-21T13:23:39;43.63;;;25.07;;
83649;SDS011;73612;50.948;6.956;2023-11-21T13:26:11;41.80;;;23.50;;
83649;SDS011;73612;50.948;6.956;2023-11-21T13:31:48;38.67;;;22.50;;
83649;SDS011;73612;50.948;6.956;2023-11-21T13:34:20;39.93;;;21.93;;
83649;SDS011;73612;50.948;6.956;2023-11-21T13:39:33;44.40;;;21.37;;
83649;SDS011;73612;50.948;6.956;2023-11-21T13:50:19;52.63;;;25.30;;
83649;SDS011;73612;50.948;6.956;2023-11-21T13:58:17;53.10;;;26.50;;
83649;SDS011;73612;50.948;6.956;2023-11-21T14:00:44;47.33;;;24.90;;
83649;SDS011;73612;50.948;6.956;2023-11-21T14:03:11;55.97;;;26.60;;
83649;SDS011;73612;50.948;6.956;2023-11-21T14:05:44;57.50;;;27.67;;
83649;SDS011;73612;50.948;6.956;2023-11-21T14:08:11;52.63;;;27.53;;
83649;SDS011;73612;50.948;6.956;2023-11-21T14:10:38;49.97;;;25.33;;
83649;SDS011;73612;50.948;6.956;2023-11-21T14:13:11;52.97;;;27.87;;
83649;SDS011;73612;50.948;6.956;2023-11-21T14:15:56;48.87;;;25.63;;
83649;SDS011;73612;50.948;6.956;2023-11-21T14:18:36;54.43;;;27.23;;
83649;SDS011;73612;50.948;6.956;2023-11-21T14:21:24;54.77;;;27.03;;
83649;SDS011;73612;50.948;6.956;2023-11-21T14:24:13;54.23;;;26.87;;
83649;SDS011;73612;50.948;6.956;2023-11-21T14:26:44;54.10;;;26.83;;
83649;SDS011;73612;50.948;6.956;2023-11-21T14:32:02;55.00;;;25.63;;
83649;SDS011;73612;50.948;6.956;2023-11-21T14:34:52;59.63;;;27.90;;
83649;SDS011;73612;50.948;6.956;2023-11-21T14:37:45;55.30;;;26.97;;
83649;SDS011;73612;50.948;6.956;2023-11-21T14:54:19;57.37;;;26.30;;
83649;SDS011;73612;50.948;6.956;2023-11-21T14:57:08;60.73;;;27.30;;
83649;SDS011;73612;50.948;6.956;2023-11-21T14:59:47;48.70;;;25.53;;
83649;SDS011;73612;50.948;6.956;2023-11-21T15:02:20;60.10;;;26.40;;
83649;SDS011;73612;50.948;6.956;2023-11-21T15:04:55;51.47;;;24.67;;
83649;SDS011;73612;50.948;6.956;2023-11-21T15:10:14;55.97;;;24.17;;
83649;SDS011;73612;50.948;6.956;2023-11-21T15:12:51;58.07;;;25.57;;
83649;SDS011;73612;50.948;6.956;2023-11-21T15:15:26;61.87;;;26.70;;
83649;SDS011;73612;50.948;6.956;2023-11-21T15:17:53;62.43;;;28.27;;
83649;SDS011;73612;50.948;6.956;2023-11-21T15:26:15;66.30;;;28.27;;
83649;SDS011;73612;50.948;6.956;2023-11-21T15:28:42;72.80;;;29.13;;
83649;SDS011;73612;50.948;6.956;2023-11-21T15:31:08;65.70;;;29.40;;
83649;SDS011;73612;50.948;6.956;2023-11-21T15:33:35;78.50;;;31.20;;
83649;SDS011;73612;50.948;6.956;2023-11-21T15:39:01;91.63;;;35.30;;
83649;SDS011;73612;50.948;6.956;2023-11-21T15:41:28;78.97;;;32.60;;
83649;SDS011;73612;50.948;6.956;2023-11-21T15:44:06;92.23;;;33.60;;
83649;SDS011;73612;50.948;6.956;2023-11-21T15:46:32;94.13;;;36.13;;
83649;SDS011;73612;50.948;6.956;2023-11-21T15:48:58;102.50;;;38.27;;
83649;SDS011;73612;50.948;6.956;2023-11-21T15:54:25;94.30;;;35.80;;
83649;SDS011;73612;50.948;6.956;2023-11-21T15:57:17;87.07;;;34.23;;
83649;SDS011;73612;50.948;6.956;2023-11-21T16:08:02;44.77;;;22.53;;
83649;SDS011;73612;50.948;6.956;2023-11-21T16:10:29;43.17;;;23.97;;
83649;SDS011;73612;50.948;6.956;2023-11-21T16:12:56;38.70;;;20.73;;
83649;SDS011;73612;50.948;6.956;2023-11-21T16:15:22;40.30;;;21.70;;
83649;SDS011;73612;50.948;6.956;2023-11-21T16:17:49;38.60;;;21.87;;
83649;SDS011;73612;50.948;6.956;2023-11-21T16:20:15;34.33;;;19.47;;
83649;SDS011;73612;50.948;6.956;2023-11-21T16:22:42;36.53;;;21.10;;
83649;SDS011;73612;50.948;6.956;2023-11-21T16:25:09;31.50;;;18.47;;
83649;SDS011;73612;50.948;6.956;2023-11-21T16:27:36;30.13;;;17.90;;
83649;SDS011;73612;50.948;6.956;2023-11-21T16:30:04;35.43;;;20.20;;
83649;SDS011;73612;50.948;6.956;2023-11-21T16:32:30;38.17;;;22.17;;
83649;SDS011;73612;50.948;6.956;2023-11-21T16:34:57;34.43;;;19.50;;
83649;SDS011;73612;50.948;6.956;2023-11-21T16:37:24;39.23;;;20.90;;
83649;SDS011;73612;50.948;6.956;2023-11-21T16:39:50;38.07;;;19.17;;
83649;SDS011;73612;50.948;6.956;2023-11-21T16:42:17;31.00;;;19.03;;
83649;SDS011;73612;50.948;6.956;2023-11-21T16:44:43;26.47;;;18.37;;
83649;SDS011;73612;50.948;6.956;2023-11-21T16:47:10;27.57;;;18.20;;
83649;SDS011;73612;50.948;6.956;2023-11-21T16:49:37;32.83;;;19.00;;
83649;SDS011;73612;50.948;6.956;2023-11-21T16:52:03;32.27;;;19.87;;
83649;SDS011;73612;50.948;6.956;2023-11-21T16:54:30;29.00;;;17.30;;
83649;SDS011;73612;50.948;6.956;2023-11-21T16:56:57;25.90;;;17.43;;
83649;SDS011;73612;50.948;6.956;2023-11-21T16:59:23;28.93;;;17.20;;
83649;SDS011;73612;50.948;6.956;2023-11-21T17:01:50;27.43;;;17.70;;
83649;SDS011;73612;50.948;6.956;2023-11-21T17:04:17;23.80;;;16.47;;
83649;SDS011;73612;50.948;6.956;2023-11-21T17:06:44;24.03;;;16.33;;
83649;SDS011;73612;50.948;6.956;2023-11-21T17:09:11;27.57;;;17.20;;
83649;SDS011;73612;50.948;6.956;2023-11-21T17:11:38;25.97;;;17.33;;
83649;SDS011;73612;50.948;6.956;2023-11-21T17:14:06;25.37;;;16.53;;
83649;SDS011;73612;50.948;6.956;2023-11-21T17:16:33;26.30;;;16.90;;
83649;SDS011;73612;50.948;6.956;2023-11-21T17:19:00;27.97;;;17.27;;
83649;SDS011;73612;50.948;6.956;2023-11-21T17:21:28;32.23;;;17.60;;
83649;SDS011;73612;50.948;6.956;2023-11-21T17:23:54;27.23;;;17.27;;
83649;SDS011;73612;50.948;6.956;2023-11-21T17:26:21;22.87;;;14.87;;
83649;SDS011;73612;50.948;6.956;2023-11-21T17:28:47;23.83;;;14.53;;